sensor_id;sensor_type;location;lat;lon;timestamp;temperature;humidity
5938;DHT22;2994;51.220;4.412;2024-03-08T00:01:12;9.77;61.39
5938;DHT22;2994;51.220;4.412;2024-03-08T00:03:42;9.77;61.14
5938;DHT22;2994;51.220;4.412;2024-03-08T00:06:15;9.74;61.12
5938;DHT22;2994;51.220;4.412;2024-03-08T00:08:48;9.74;61.02
5938;DHT22;2994;51.220;4.412;2024-03-08T00:11:17;9.72;60.97
5938;DHT22;2994;51.220;4.412;2024-03-08T00:13:48;9.71;60.83
5938;DHT22;2994;51.220;4.412;2024-03-08T00:21:36;9.66;61.11
5938;DHT22;2994;51.220;4.412;2024-03-08T00:24:07;9.65;60.95
5938;DHT22;2994;51.220;4.412;2024-03-08T00:26:35;9.63;60.70
5938;DHT22;2994;51.220;4.412;2024-03-08T00:29:09;9.64;60.54
5938;DHT22;2994;51.220;4.412;2024-03-08T00:31:41;9.64;60.71
5938;DHT22;2994;51.220;4.412;2024-03-08T00:34:39;9.60;60.63
5938;DHT22;2994;51.220;4.412;2024-03-08T00:37:18;9.60;60.38
5938;DHT22;2994;51.220;4.412;2024-03-08T00:39:58;9.54;60.29
5938;DHT22;2994;51.220;4.412;2024-03-08T00:42:37;9.54;60.42
5938;DHT22;2994;51.220;4.412;2024-03-08T00:50:20;9.51;60.06
5938;DHT22;2994;51.220;4.412;2024-03-08T00:52:58;9.49;60.10
5938;DHT22;2994;51.220;4.412;2024-03-08T00:55:30;9.49;60.03
5938;DHT22;2994;51.220;4.412;2024-03-08T00:58:00;9.45;59.67
5938;DHT22;2994;51.220;4.412;2024-03-08T01:00:28;9.47;59.19
5938;DHT22;2994;51.220;4.412;2024-03-08T01:02:59;9.35;59.37
5938;DHT22;2994;51.220;4.412;2024-03-08T01:05:27;9.39;59.35
5938;DHT22;2994;51.220;4.412;2024-03-08T01:07:56;9.35;59.17
5938;DHT22;2994;51.220;4.412;2024-03-08T01:10:32;9.33;59.05
5938;DHT22;2994;51.220;4.412;2024-03-08T01:13:03;9.29;58.91
5938;DHT22;2994;51.220;4.412;2024-03-08T01:15:39;9.18;58.93
5938;DHT22;2994;51.220;4.412;2024-03-08T01:18:07;9.18;58.94
5938;DHT22;2994;51.220;4.412;2024-03-08T01:20:35;9.20;59.31
5938;DHT22;2994;51.220;4.412;2024-03-08T01:23:04;9.20;59.11
5938;DHT22;2994;51.220;4.412;2024-03-08T01:25:35;9.27;58.29
5938;DHT22;2994;51.220;4.412;2024-03-08T01:28:01;9.18;58.69
5938;DHT22;2994;51.220;4.412;2024-03-08T01:30:27;9.15;58.75
5938;DHT22;2994;51.220;4.412;2024-03-08T01:32:58;9.18;58.52
5938;DHT22;2994;51.220;4.412;2024-03-08T01:35:24;9.17;58.66
5938;DHT22;2994;51.220;4.412;2024-03-08T01:37:53;9.15;58.60
5938;DHT22;2994;51.220;4.412;2024-03-08T01:40:35;9.12;58.27
5938;DHT22;2994;51.220;4.412;2024-03-08T01:43:22;9.09;58.73
5938;DHT22;2994;51.220;4.412;2024-03-08T01:45:51;9.09;58.26
5938;DHT22;2994;51.220;4.412;2024-03-08T01:48:17;9.08;58.24
5938;DHT22;2994;51.220;4.412;2024-03-08T01:50:44;9.09;58.61
5938;DHT22;2994;51.220;4.412;2024-03-08T01:53:10;9.08;58.43
5938;DHT22;2994;51.220;4.412;2024-03-08T01:55:38;9.07;58.41
5938;DHT22;2994;51.220;4.412;2024-03-08T01:58:08;9.05;58.30
5938;DHT22;2994;51.220;4.412;2024-03-08T02:00:46;9.05;58.26
5938;DHT22;2994;51.220;4.412;2024-03-08T02:03:21;9.03;57.74
5938;DHT22;2994;51.220;4.412;2024-03-08T02:05:48;9.00;58.00
5938;DHT22;2994;51.220;4.412;2024-03-08T02:08:23;8.96;57.77
5938;DHT22;2994;51.220;4.412;2024-03-08T02:11:00;8.95;57.96
5938;DHT22;2994;51.220;4.412;2024-03-08T02:13:29;8.94;58.01
5938;DHT22;2994;51.220;4.412;2024-03-08T02:15:58;8.95;58.13
5938;DHT22;2994;51.220;4.412;2024-03-08T02:18:31;8.94;57.62
5938;DHT22;2994;51.220;4.412;2024-03-08T02:21:03;8.90;57.87
5938;DHT22;2994;51.220;4.412;2024-03-08T02:23:34;8.82;57.72
5938;DHT22;2994;51.220;4.412;2024-03-08T02:26:03;8.80;57.52
5938;DHT22;2994;51.220;4.412;2024-03-08T02:28:33;8.77;57.44
5938;DHT22;2994;51.220;4.412;2024-03-08T02:31:02;8.75;57.89
5938;DHT22;2994;51.220;4.412;2024-03-08T02:33:33;8.77;57.93
5938;DHT22;2994;51.220;4.412;2024-03-08T02:36:05;8.75;57.47
5938;DHT22;2994;51.220;4.412;2024-03-08T02:38:34;8.68;57.71
5938;DHT22;2994;51.220;4.412;2024-03-08T02:41:03;8.67;57.72
5938;DHT22;2994;51.220;4.412;2024-03-08T02:43:32;8.66;57.75
5938;DHT22;2994;51.220;4.412;2024-03-08T02:45:57;8.57;57.78
5938;DHT22;2994;51.220;4.412;2024-03-08T02:48:23;8.61;57.64
5938;DHT22;2994;51.220;4.412;2024-03-08T02:50:51;8.62;57.48
5938;DHT22;2994;51.220;4.412;2024-03-08T02:53:19;8.62;57.61
5938;DHT22;2994;51.220;4.412;2024-03-08T02:55:47;8.60;57.39
5938;DHT22;2994;51.220;4.412;2024-03-08T02:58:13;8.58;57.37
5938;DHT22;2994;51.220;4.412;2024-03-08T03:00:40;8.56;57.32
5938;DHT22;2994;51.220;4.412;2024-03-08T03:03:07;8.52;57.39
5938;DHT22;2994;51.220;4.412;2024-03-08T03:05:32;8.50;57.32
5938;DHT22;2994;51.220;4.412;2024-03-08T03:07:59;8.52;57.32
5938;DHT22;2994;51.220;4.412;2024-03-08T03:10:30;8.50;57.32
5938;DHT22;2994;51.220;4.412;2024-03-08T03:12:58;8.48;57.10
5938;DHT22;2994;51.220;4.412;2024-03-08T03:15:31;8.26;57.33
5938;DHT22;2994;51.220;4.412;2024-03-08T03:17:59;8.38;56.97
5938;DHT22;2994;51.220;4.412;2024-03-08T03:20:25;8.36;57.03
5938;DHT22;2994;51.220;4.412;2024-03-08T03:23:01;8.31;57.35
5938;DHT22;2994;51.220;4.412;2024-03-08T03:25:28;8.35;57.32
5938;DHT22;2994;51.220;4.412;2024-03-08T03:28:01;8.31;57.19
5938;DHT22;2994;51.220;4.412;2024-03-08T03:30:32;8.28;57.26
5938;DHT22;2994;51.220;4.412;2024-03-08T03:33:01;8.29;57.30
5938;DHT22;2994;51.220;4.412;2024-03-08T03:35:29;8.28;57.13
5938;DHT22;2994;51.220;4.412;2024-03-08T03:37:57;7.89;58.06
5938;DHT22;2994;51.220;4.412;2024-03-08T03:40:57;8.17;57.56
5938;DHT22;2994;51.220;4.412;2024-03-08T03:43:38;8.20;57.28
5938;DHT22;2994;51.220;4.412;2024-03-08T03:46:14;8.14;57.66
5938;DHT22;2994;51.220;4.412;2024-03-08T03:48:41;8.16;57.27
5938;DHT22;2994;51.220;4.412;2024-03-08T03:51:12;8.16;57.18
5938;DHT22;2994;51.220;4.412;2024-03-08T03:53:40;8.16;57.26
5938;DHT22;2994;51.220;4.412;2024-03-08T03:56:06;8.15;57.15
5938;DHT22;2994;51.220;4.412;2024-03-08T03:58:32;8.08;57.19
5938;DHT22;2994;51.220;4.412;2024-03-08T04:00:58;8.04;57.10
5938;DHT22;2994;51.220;4.412;2024-03-08T04:03:26;8.06;57.23
5938;DHT22;2994;51.220;4.412;2024-03-08T04:05:55;8.07;57.16
5938;DHT22;2994;51.220;4.412;2024-03-08T04:08:23;7.92;57.37
5938;DHT22;2994;51.220;4.412;2024-03-08T04:10:57;7.96;57.51
5938;DHT22;2994;51.220;4.412;2024-03-08T04:13:34;8.01;57.22
5938;DHT22;2994;51.220;4.412;2024-03-08T04:16:02;8.00;57.29
5938;DHT22;2994;51.220;4.412;2024-03-08T04:18:33;8.01;57.35
5938;DHT22;2994;51.220;4.412;2024-03-08T04:21:01;7.93;57.29
5938;DHT22;2994;51.220;4.412;2024-03-08T04:23:29;7.96;57.13
5938;DHT22;2994;51.220;4.412;2024-03-08T04:26:02;7.96;57.10
5938;DHT22;2994;51.220;4.412;2024-03-08T04:28:35;7.90;57.17
5938;DHT22;2994;51.220;4.412;2024-03-08T04:31:04;7.87;57.22
5938;DHT22;2994;51.220;4.412;2024-03-08T04:33:30;7.88;57.25
5938;DHT22;2994;51.220;4.412;2024-03-08T04:35:56;7.84;57.08
5938;DHT22;2994;51.220;4.412;2024-03-08T04:38:21;7.83;57.38
5938;DHT22;2994;51.220;4.412;2024-03-08T04:40:49;7.85;57.34
5938;DHT22;2994;51.220;4.412;2024-03-08T04:43:14;7.64;57.82
5938;DHT22;2994;51.220;4.412;2024-03-08T04:45:40;7.72;57.61
5938;DHT22;2994;51.220;4.412;2024-03-08T04:48:09;7.74;57.40
5938;DHT22;2994;51.220;4.412;2024-03-08T04:50:48;7.72;57.26
5938;DHT22;2994;51.220;4.412;2024-03-08T04:53:20;7.71;57.13
5938;DHT22;2994;51.220;4.412;2024-03-08T04:55:46;7.69;57.39
5938;DHT22;2994;51.220;4.412;2024-03-08T04:58:14;7.69;57.16
5938;DHT22;2994;51.220;4.412;2024-03-08T05:00:40;7.69;57.43
5938;DHT22;2994;51.220;4.412;2024-03-08T05:03:06;7.64;57.40
5938;DHT22;2994;51.220;4.412;2024-03-08T05:05:32;7.64;57.71
5938;DHT22;2994;51.220;4.412;2024-03-08T05:07:58;7.65;57.84
5938;DHT22;2994;51.220;4.412;2024-03-08T05:10:24;7.63;57.77
5938;DHT22;2994;51.220;4.412;2024-03-08T05:12:49;7.59;57.82
5938;DHT22;2994;51.220;4.412;2024-03-08T05:15:18;7.63;57.43
5938;DHT22;2994;51.220;4.412;2024-03-08T05:17:49;7.67;56.88
5938;DHT22;2994;51.220;4.412;2024-03-08T05:20:15;7.54;57.35
5938;DHT22;2994;51.220;4.412;2024-03-08T05:22:42;7.52;57.79
5938;DHT22;2994;51.220;4.412;2024-03-08T05:25:11;7.50;57.72
5938;DHT22;2994;51.220;4.412;2024-03-08T05:27:42;7.49;57.87
5938;DHT22;2994;51.220;4.412;2024-03-08T05:30:08;7.52;57.59
5938;DHT22;2994;51.220;4.412;2024-03-08T05:32:41;7.48;57.80
5938;DHT22;2994;51.220;4.412;2024-03-08T05:35:15;7.34;58.15
5938;DHT22;2994;51.220;4.412;2024-03-08T05:37:43;7.42;58.06
5938;DHT22;2994;51.220;4.412;2024-03-08T05:40:09;7.45;58.19
5938;DHT22;2994;51.220;4.412;2024-03-08T05:42:37;7.40;57.81
5938;DHT22;2994;51.220;4.412;2024-03-08T05:45:14;7.39;58.00
5938;DHT22;2994;51.220;4.412;2024-03-08T05:47:45;7.42;58.09
5938;DHT22;2994;51.220;4.412;2024-03-08T05:50:23;7.37;57.76
5938;DHT22;2994;51.220;4.412;2024-03-08T06:08:28;7.03;58.76
5938;DHT22;2994;51.220;4.412;2024-03-08T06:10:56;7.22;58.14
5938;DHT22;2994;51.220;4.412;2024-03-08T06:16:30;7.05;58.67
5938;DHT22;2994;51.220;4.412;2024-03-08T06:18:57;7.22;58.49
5938;DHT22;2994;51.220;4.412;2024-03-08T06:21:34;7.16;58.25
5938;DHT22;2994;51.220;4.412;2024-03-08T06:24:01;7.18;58.37
5938;DHT22;2994;51.220;4.412;2024-03-08T06:26:35;7.20;58.45
5938;DHT22;2994;51.220;4.412;2024-03-08T06:29:06;7.19;58.26
5938;DHT22;2994;51.220;4.412;2024-03-08T06:31:32;7.13;58.37
5938;DHT22;2994;51.220;4.412;2024-03-08T06:34:08;7.20;58.34
5938;DHT22;2994;51.220;4.412;2024-03-08T06:36:39;7.20;58.18
5938;DHT22;2994;51.220;4.412;2024-03-08T06:39:07;7.19;58.22
5938;DHT22;2994;51.220;4.412;2024-03-08T06:41:38;7.23;58.56
5938;DHT22;2994;51.220;4.412;2024-03-08T06:44:22;7.24;58.49
5938;DHT22;2994;51.220;4.412;2024-03-08T06:46:48;6.85;59.19
5938;DHT22;2994;51.220;4.412;2024-03-08T06:49:17;7.12;58.86
5938;DHT22;2994;51.220;4.412;2024-03-08T06:51:44;7.18;58.48
5938;DHT22;2994;51.220;4.412;2024-03-08T06:54:13;7.17;58.41
5938;DHT22;2994;51.220;4.412;2024-03-08T06:56:40;7.23;58.70
5938;DHT22;2994;51.220;4.412;2024-03-08T06:59:06;7.25;58.20
5938;DHT22;2994;51.220;4.412;2024-03-08T07:01:36;7.24;58.16
5938;DHT22;2994;51.220;4.412;2024-03-08T07:04:08;7.24;58.25
5938;DHT22;2994;51.220;4.412;2024-03-08T07:06:41;7.26;58.26
5938;DHT22;2994;51.220;4.412;2024-03-08T07:09:10;6.95;59.24
5938;DHT22;2994;51.220;4.412;2024-03-08T07:11:38;7.22;58.13
5938;DHT22;2994;51.220;4.412;2024-03-08T07:14:11;7.22;58.37
5938;DHT22;2994;51.220;4.412;2024-03-08T07:16:36;7.23;58.25
5938;DHT22;2994;51.220;4.412;2024-03-08T07:19:05;7.22;58.21
5938;DHT22;2994;51.220;4.412;2024-03-08T07:21:31;7.07;58.40
5938;DHT22;2994;51.220;4.412;2024-03-08T07:23:56;7.15;58.24
5938;DHT22;2994;51.220;4.412;2024-03-08T07:26:35;7.19;58.16
5938;DHT22;2994;51.220;4.412;2024-03-08T07:29:04;7.08;58.52
5938;DHT22;2994;51.220;4.412;2024-03-08T07:31:33;7.16;58.46
5938;DHT22;2994;51.220;4.412;2024-03-08T07:34:21;7.04;58.99
5938;DHT22;2994;51.220;4.412;2024-03-08T07:36:49;7.18;58.96
5938;DHT22;2994;51.220;4.412;2024-03-08T07:39:26;7.23;58.93
5938;DHT22;2994;51.220;4.412;2024-03-08T07:41:57;7.30;58.53
5938;DHT22;2994;51.220;4.412;2024-03-08T07:44:23;7.31;58.25
5938;DHT22;2994;51.220;4.412;2024-03-08T07:46:55;7.34;58.27
5938;DHT22;2994;51.220;4.412;2024-03-08T07:49:23;7.31;58.38
5938;DHT22;2994;51.220;4.412;2024-03-08T07:51:49;7.14;59.11
5938;DHT22;2994;51.220;4.412;2024-03-08T07:54:15;7.31;58.41
5938;DHT22;2994;51.220;4.412;2024-03-08T07:56:41;7.25;58.76
5938;DHT22;2994;51.220;4.412;2024-03-08T07:59:07;7.39;58.29
5938;DHT22;2994;51.220;4.412;2024-03-08T08:01:33;7.33;58.30
5938;DHT22;2994;51.220;4.412;2024-03-08T08:04:01;7.46;58.06
5938;DHT22;2994;51.220;4.412;2024-03-08T08:06:29;7.56;58.00
5938;DHT22;2994;51.220;4.412;2024-03-08T08:08:58;7.68;57.38
5938;DHT22;2994;51.220;4.412;2024-03-08T08:11:26;7.76;57.26
5938;DHT22;2994;51.220;4.412;2024-03-08T08:13:54;7.79;57.13
5938;DHT22;2994;51.220;4.412;2024-03-08T08:16:22;7.86;57.23
5938;DHT22;2994;51.220;4.412;2024-03-08T08:18:48;7.92;56.84
5938;DHT22;2994;51.220;4.412;2024-03-08T08:21:14;7.91;56.90
5938;DHT22;2994;51.220;4.412;2024-03-08T08:23:39;7.99;57.06
5938;DHT22;2994;51.220;4.412;2024-03-08T08:26:05;7.94;57.50
5938;DHT22;2994;51.220;4.412;2024-03-08T08:28:32;8.02;56.47
5938;DHT22;2994;51.220;4.412;2024-03-08T08:31:00;8.15;56.30
5938;DHT22;2994;51.220;4.412;2024-03-08T08:33:37;8.27;56.13
5938;DHT22;2994;51.220;4.412;2024-03-08T08:36:26;8.34;56.41
5938;DHT22;2994;51.220;4.412;2024-03-08T08:39:05;8.36;55.74
5938;DHT22;2994;51.220;4.412;2024-03-08T08:41:43;8.46;54.98
5938;DHT22;2994;51.220;4.412;2024-03-08T08:44:09;8.46;55.63
5938;DHT22;2994;51.220;4.412;2024-03-08T08:46:38;8.43;57.71
5938;DHT22;2994;51.220;4.412;2024-03-08T08:49:04;8.56;55.57
5938;DHT22;2994;51.220;4.412;2024-03-08T08:51:31;8.55;54.87
5938;DHT22;2994;51.220;4.412;2024-03-08T08:53:59;8.68;55.05
5938;DHT22;2994;51.220;4.412;2024-03-08T08:56:24;8.72;54.49
5938;DHT22;2994;51.220;4.412;2024-03-08T08:58:51;8.83;54.44
5938;DHT22;2994;51.220;4.412;2024-03-08T09:01:18;8.74;54.01
5938;DHT22;2994;51.220;4.412;2024-03-08T09:03:44;8.82;53.81
5938;DHT22;2994;51.220;4.412;2024-03-08T09:06:12;8.98;53.49
5938;DHT22;2994;51.220;4.412;2024-03-08T09:08:39;9.07;53.66
5938;DHT22;2994;51.220;4.412;2024-03-08T09:11:07;9.16;53.68
5938;DHT22;2994;51.220;4.412;2024-03-08T09:13:33;9.25;52.91
5938;DHT22;2994;51.220;4.412;2024-03-08T09:16:02;9.26;52.93
5938;DHT22;2994;51.220;4.412;2024-03-08T09:18:30;9.38;52.31
5938;DHT22;2994;51.220;4.412;2024-03-08T09:20:58;9.49;51.24
5938;DHT22;2994;51.220;4.412;2024-03-08T09:23:25;9.18;52.14
5938;DHT22;2994;51.220;4.412;2024-03-08T09:25:56;9.56;51.39
5938;DHT22;2994;51.220;4.412;2024-03-08T09:28:24;9.42;51.68
5938;DHT22;2994;51.220;4.412;2024-03-08T09:30:50;9.31;51.99
5938;DHT22;2994;51.220;4.412;2024-03-08T09:33:16;9.42;51.31
5938;DHT22;2994;51.220;4.412;2024-03-08T09:35:45;9.68;50.95
5938;DHT22;2994;51.220;4.412;2024-03-08T09:38:16;9.67;50.54
5938;DHT22;2994;51.220;4.412;2024-03-08T09:40:42;9.78;50.88
5938;DHT22;2994;51.220;4.412;2024-03-08T09:43:11;9.95;49.74
5938;DHT22;2994;51.220;4.412;2024-03-08T09:45:42;9.77;50.50
5938;DHT22;2994;51.220;4.412;2024-03-08T09:48:13;9.91;50.26
5938;DHT22;2994;51.220;4.412;2024-03-08T09:50:42;10.14;50.53
5938;DHT22;2994;51.220;4.412;2024-03-08T09:58:47;10.40;49.48
5938;DHT22;2994;51.220;4.412;2024-03-08T10:04:18;10.66;49.49
5938;DHT22;2994;51.220;4.412;2024-03-08T10:06:48;10.72;48.48
5938;DHT22;2994;51.220;4.412;2024-03-08T10:09:22;10.82;48.51
5938;DHT22;2994;51.220;4.412;2024-03-08T10:22:15;10.90;47.15
5938;DHT22;2994;51.220;4.412;2024-03-08T10:24:41;10.99;46.19
5938;DHT22;2994;51.220;4.412;2024-03-08T10:37:28;10.85;46.20
5938;DHT22;2994;51.220;4.412;2024-03-08T10:40:04;10.84;46.83
5938;DHT22;2994;51.220;4.412;2024-03-08T10:42:41;10.95;46.80
5938;DHT22;2994;51.220;4.412;2024-03-08T10:45:36;11.20;46.21
5938;DHT22;2994;51.220;4.412;2024-03-08T10:50:58;11.46;44.94
5938;DHT22;2994;51.220;4.412;2024-03-08T11:09:33;11.42;45.82
5938;DHT22;2994;51.220;4.412;2024-03-08T11:20:00;11.48;45.77
5938;DHT22;2994;51.220;4.412;2024-03-08T11:22:35;11.36;45.62
5938;DHT22;2994;51.220;4.412;2024-03-08T11:25:09;11.56;45.28
5938;DHT22;2994;51.220;4.412;2024-03-08T11:32:46;11.53;45.32
5938;DHT22;2994;51.220;4.412;2024-03-08T11:35:21;11.60;44.96
5938;DHT22;2994;51.220;4.412;2024-03-08T11:37:51;11.58;45.26
5938;DHT22;2994;51.220;4.412;2024-03-08T11:40:16;11.76;45.05
5938;DHT22;2994;51.220;4.412;2024-03-08T11:43:00;11.79;44.98
5938;DHT22;2994;51.220;4.412;2024-03-08T11:45:29;11.76;44.93
5938;DHT22;2994;51.220;4.412;2024-03-08T11:47:57;11.67;45.83
5938;DHT22;2994;51.220;4.412;2024-03-08T11:50:26;11.82;45.63
5938;DHT22;2994;51.220;4.412;2024-03-08T11:52:51;11.97;44.73
5938;DHT22;2994;51.220;4.412;2024-03-08T11:55:17;11.85;44.83
5938;DHT22;2994;51.220;4.412;2024-03-08T11:57:44;11.75;45.45
5938;DHT22;2994;51.220;4.412;2024-03-08T12:00:18;11.91;44.93
5938;DHT22;2994;51.220;4.412;2024-03-08T12:03:04;12.00;45.28
5938;DHT22;2994;51.220;4.412;2024-03-08T12:05:30;12.04;44.51
5938;DHT22;2994;51.220;4.412;2024-03-08T12:08:01;11.87;45.37
5938;DHT22;2994;51.220;4.412;2024-03-08T12:10:27;11.98;44.80
5938;DHT22;2994;51.220;4.412;2024-03-08T12:12:55;11.85;45.58
5938;DHT22;2994;51.220;4.412;2024-03-08T12:15:29;11.97;44.87
5938;DHT22;2994;51.220;4.412;2024-03-08T12:17:55;12.12;45.39
5938;DHT22;2994;51.220;4.412;2024-03-08T12:20:25;12.01;45.01
5938;DHT22;2994;51.220;4.412;2024-03-08T12:22:53;12.11;45.22
5938;DHT22;2994;51.220;4.412;2024-03-08T12:25:25;12.20;44.64
5938;DHT22;2994;51.220;4.412;2024-03-08T12:27:56;12.15;44.44
5938;DHT22;2994;51.220;4.412;2024-03-08T12:30:31;12.22;44.24
5938;DHT22;2994;51.220;4.412;2024-03-08T12:33:08;12.29;44.93
5938;DHT22;2994;51.220;4.412;2024-03-08T12:35:36;12.02;45.25
5938;DHT22;2994;51.220;4.412;2024-03-08T12:38:02;12.18;45.00
5938;DHT22;2994;51.220;4.412;2024-03-08T12:40:35;12.33;44.73
5938;DHT22;2994;51.220;4.412;2024-03-08T12:43:08;12.30;44.74
5938;DHT22;2994;51.220;4.412;2024-03-08T12:49:17;12.49;43.94
5938;DHT22;2994;51.220;4.412;2024-03-08T12:52:23;12.51;44.71
5938;DHT22;2994;51.220;4.412;2024-03-08T13:41:03;13.17;44.19
5938;DHT22;2994;51.220;4.412;2024-03-08T13:43:28;13.20;44.45
5938;DHT22;2994;51.220;4.412;2024-03-08T13:45:56;13.19;43.87
5938;DHT22;2994;51.220;4.412;2024-03-08T13:48:27;13.23;43.32
5938;DHT22;2994;51.220;4.412;2024-03-08T13:50:56;13.20;43.31
5938;DHT22;2994;51.220;4.412;2024-03-08T13:53:22;13.17;43.61
5938;DHT22;2994;51.220;4.412;2024-03-08T13:56:08;13.23;44.06
5938;DHT22;2994;51.220;4.412;2024-03-08T13:58:36;13.03;44.35
5938;DHT22;2994;51.220;4.412;2024-03-08T14:01:02;13.04;44.80
5938;DHT22;2994;51.220;4.412;2024-03-08T14:03:31;13.24;44.49
5938;DHT22;2994;51.220;4.412;2024-03-08T14:05:57;13.16;44.44
5938;DHT22;2994;51.220;4.412;2024-03-08T14:08:24;13.20;44.35
5938;DHT22;2994;51.220;4.412;2024-03-08T14:10:50;13.29;44.67
5938;DHT22;2994;51.220;4.412;2024-03-08T14:13:17;13.14;43.96
5938;DHT22;2994;51.220;4.412;2024-03-08T14:15:44;13.39;43.64
5938;DHT22;2994;51.220;4.412;2024-03-08T14:18:11;13.38;44.42
5938;DHT22;2994;51.220;4.412;2024-03-08T14:20:38;13.40;44.50
5938;DHT22;2994;51.220;4.412;2024-03-08T14:23:04;13.29;43.72
5938;DHT22;2994;51.220;4.412;2024-03-08T14:25:33;13.43;43.67
5938;DHT22;2994;51.220;4.412;2024-03-08T14:27:58;13.49;43.37
5938;DHT22;2994;51.220;4.412;2024-03-08T14:30:27;13.39;43.64
5938;DHT22;2994;51.220;4.412;2024-03-08T14:33:04;13.52;43.08
5938;DHT22;2994;51.220;4.412;2024-03-08T14:35:38;13.39;43.16
5938;DHT22;2994;51.220;4.412;2024-03-08T14:38:04;13.50;42.91
5938;DHT22;2994;51.220;4.412;2024-03-08T14:40:29;13.63;42.84
5938;DHT22;2994;51.220;4.412;2024-03-08T14:42:56;13.45;43.51
5938;DHT22;2994;51.220;4.412;2024-03-08T14:45:24;13.61;42.86
5938;DHT22;2994;51.220;4.412;2024-03-08T14:47:51;13.54;42.37
5938;DHT22;2994;51.220;4.412;2024-03-08T14:50:18;13.44;43.31
5938;DHT22;2994;51.220;4.412;2024-03-08T14:55:20;13.59;42.90
5938;DHT22;2994;51.220;4.412;2024-03-08T15:03:04;13.65;42.82
5938;DHT22;2994;51.220;4.412;2024-03-08T15:08:07;13.65;42.67
5938;DHT22;2994;51.220;4.412;2024-03-08T15:10:36;13.65;42.89
5938;DHT22;2994;51.220;4.412;2024-03-08T15:13:04;13.73;42.87
5938;DHT22;2994;51.220;4.412;2024-03-08T15:15:39;13.75;42.27
5938;DHT22;2994;51.220;4.412;2024-03-08T15:18:08;13.80;42.49
5938;DHT22;2994;51.220;4.412;2024-03-08T15:20:33;13.49;42.95
5938;DHT22;2994;51.220;4.412;2024-03-08T15:23:00;13.65;41.81
5938;DHT22;2994;51.220;4.412;2024-03-08T15:25:25;13.74;42.15
5938;DHT22;2994;51.220;4.412;2024-03-08T15:27:54;13.81;42.20
5938;DHT22;2994;51.220;4.412;2024-03-08T15:30:29;13.84;42.38
5938;DHT22;2994;51.220;4.412;2024-03-08T15:32:59;13.84;40.89
5938;DHT22;2994;51.220;4.412;2024-03-08T15:35:28;13.70;41.78
5938;DHT22;2994;51.220;4.412;2024-03-08T15:37:54;13.77;41.43
5938;DHT22;2994;51.220;4.412;2024-03-08T15:40:39;13.77;42.56
5938;DHT22;2994;51.220;4.412;2024-03-08T15:43:04;13.76;41.67
5938;DHT22;2994;51.220;4.412;2024-03-08T15:45:30;13.76;41.83
5938;DHT22;2994;51.220;4.412;2024-03-08T15:47:56;13.74;41.30
5938;DHT22;2994;51.220;4.412;2024-03-08T16:05:08;13.75;42.63
5938;DHT22;2994;51.220;4.412;2024-03-08T16:10:12;13.70;42.21
5938;DHT22;2994;51.220;4.412;2024-03-08T16:12:37;13.54;42.63
5938;DHT22;2994;51.220;4.412;2024-03-08T16:15:08;13.46;43.29
5938;DHT22;2994;51.220;4.412;2024-03-08T16:17:37;13.73;42.29
5938;DHT22;2994;51.220;4.412;2024-03-08T16:20:05;13.39;43.07
5938;DHT22;2994;51.220;4.412;2024-03-08T16:22:37;13.56;43.40
5938;DHT22;2994;51.220;4.412;2024-03-08T16:27:40;13.70;42.63
5938;DHT22;2994;51.220;4.412;2024-03-08T16:30:07;13.73;42.91
5938;DHT22;2994;51.220;4.412;2024-03-08T16:32:46;13.62;43.50
5938;DHT22;2994;51.220;4.412;2024-03-08T16:35:23;13.73;43.67
5938;DHT22;2994;51.220;4.412;2024-03-08T16:37:48;13.58;43.26
5938;DHT22;2994;51.220;4.412;2024-03-08T16:40:16;13.34;43.59
5938;DHT22;2994;51.220;4.412;2024-03-08T16:42:48;13.39;43.74
5938;DHT22;2994;51.220;4.412;2024-03-08T16:45:22;13.51;43.19
5938;DHT22;2994;51.220;4.412;2024-03-08T16:47:49;13.56;43.60
5938;DHT22;2994;51.220;4.412;2024-03-08T16:50:17;13.52;43.10
5938;DHT22;2994;51.220;4.412;2024-03-08T16:52:44;13.54;43.35
5938;DHT22;2994;51.220;4.412;2024-03-08T16:55:10;13.49;43.90
5938;DHT22;2994;51.220;4.412;2024-03-08T16:57:41;13.41;43.58
5938;DHT22;2994;51.220;4.412;2024-03-08T17:00:22;13.45;43.40
5938;DHT22;2994;51.220;4.412;2024-03-08T17:02:55;13.45;43.55
5938;DHT22;2994;51.220;4.412;2024-03-08T17:05:23;13.37;43.44
5938;DHT22;2994;51.220;4.412;2024-03-08T17:07:53;13.15;43.74
5938;DHT22;2994;51.220;4.412;2024-03-08T17:10:19;13.25;43.34
5938;DHT22;2994;51.220;4.412;2024-03-08T17:12:46;13.25;43.52
5938;DHT22;2994;51.220;4.412;2024-03-08T17:15:16;13.26;43.78
5938;DHT22;2994;51.220;4.412;2024-03-08T17:17:43;13.36;42.72
5938;DHT22;2994;51.220;4.412;2024-03-08T17:20:13;13.29;43.08
5938;DHT22;2994;51.220;4.412;2024-03-08T17:22:43;13.25;43.80
5938;DHT22;2994;51.220;4.412;2024-03-08T17:25:09;13.24;44.09
5938;DHT22;2994;51.220;4.412;2024-03-08T17:27:43;13.21;43.77
5938;DHT22;2994;51.220;4.412;2024-03-08T17:30:11;13.11;43.86
5938;DHT22;2994;51.220;4.412;2024-03-08T17:33:04;13.18;43.83
5938;DHT22;2994;51.220;4.412;2024-03-08T17:35:34;13.09;43.95
5938;DHT22;2994;51.220;4.412;2024-03-08T17:38:01;13.11;44.38
5938;DHT22;2994;51.220;4.412;2024-03-08T17:40:35;13.09;44.42
5938;DHT22;2994;51.220;4.412;2024-03-08T17:43:04;13.03;44.45
5938;DHT22;2994;51.220;4.412;2024-03-08T17:45:35;13.00;44.92
5938;DHT22;2994;51.220;4.412;2024-03-08T17:48:02;12.97;44.45
5938;DHT22;2994;51.220;4.412;2024-03-08T17:50:40;13.05;44.10
5938;DHT22;2994;51.220;4.412;2024-03-08T17:53:06;12.96;44.48
5938;DHT22;2994;51.220;4.412;2024-03-08T17:55:32;12.93;44.54
5938;DHT22;2994;51.220;4.412;2024-03-08T17:57:59;12.97;44.64
5938;DHT22;2994;51.220;4.412;2024-03-08T18:00:25;12.97;44.48
5938;DHT22;2994;51.220;4.412;2024-03-08T18:03:04;12.96;45.06
5938;DHT22;2994;51.220;4.412;2024-03-08T18:05:31;12.78;45.18
5938;DHT22;2994;51.220;4.412;2024-03-08T18:08:05;12.84;44.86
5938;DHT22;2994;51.220;4.412;2024-03-08T18:10:32;12.82;45.06
5938;DHT22;2994;51.220;4.412;2024-03-08T18:13:03;12.85;44.74
5938;DHT22;2994;51.220;4.412;2024-03-08T18:15:37;12.86;44.99
5938;DHT22;2994;51.220;4.412;2024-03-08T18:18:04;12.89;44.34
5938;DHT22;2994;51.220;4.412;2024-03-08T18:20:35;12.87;44.51
5938;DHT22;2994;51.220;4.412;2024-03-08T18:23:09;12.74;44.45
5938;DHT22;2994;51.220;4.412;2024-03-08T18:25:35;12.64;45.09
5938;DHT22;2994;51.220;4.412;2024-03-08T18:28:04;12.71;45.22
5938;DHT22;2994;51.220;4.412;2024-03-08T18:30:38;12.72;45.42
5938;DHT22;2994;51.220;4.412;2024-03-08T18:33:05;12.52;45.06
5938;DHT22;2994;51.220;4.412;2024-03-08T18:35:35;12.66;45.69
5938;DHT22;2994;51.220;4.412;2024-03-08T18:38:03;12.65;45.31
5938;DHT22;2994;51.220;4.412;2024-03-08T18:40:32;12.62;45.26
5938;DHT22;2994;51.220;4.412;2024-03-08T18:43:01;12.65;45.19
5938;DHT22;2994;51.220;4.412;2024-03-08T18:45:30;12.65;45.16
5938;DHT22;2994;51.220;4.412;2024-03-08T18:47:56;12.57;45.25
5938;DHT22;2994;51.220;4.412;2024-03-08T18:50:23;12.57;45.78
5938;DHT22;2994;51.220;4.412;2024-03-08T18:52:51;12.59;45.93
5938;DHT22;2994;51.220;4.412;2024-03-08T18:55:17;12.50;45.47
5938;DHT22;2994;51.220;4.412;2024-03-08T18:57:50;12.61;44.99
5938;DHT22;2994;51.220;4.412;2024-03-08T19:00:19;12.53;45.61
5938;DHT22;2994;51.220;4.412;2024-03-08T19:02:53;12.51;45.48
5938;DHT22;2994;51.220;4.412;2024-03-08T19:05:19;12.46;45.51
5938;DHT22;2994;51.220;4.412;2024-03-08T19:07:53;12.43;45.99
5938;DHT22;2994;51.220;4.412;2024-03-08T19:10:21;12.40;45.95
5938;DHT22;2994;51.220;4.412;2024-03-08T19:12:48;12.43;45.59
5938;DHT22;2994;51.220;4.412;2024-03-08T19:15:15;12.31;45.80
5938;DHT22;2994;51.220;4.412;2024-03-08T19:17:45;12.18;45.99